TimeCST,TemperatureF,Dew PointF,Humidity,Sea Level PressureIn,VisibilityMPH,Wind Direction,Wind SpeedMPH,Gust SpeedMPH,PrecipitationIn,Events,Conditions,WindDirDegrees,DateUTC
12:15 AM,44.6,41.0,87,30.19,10.0,Calm,Calm,-,N/A,,Mostly Cloudy,0,2012-11-20 06:15:00
12:35 AM,46.4,41.0,81,30.19,10.0,Calm,Calm,-,N/A,,Scattered Clouds,0,2012-11-20 06:35:00
12:55 AM,46.4,39.2,76,30.18,10.0,Calm,Calm,-,N/A,,Clear,0,2012-11-20 06:55:00
1:15 AM,46.4,41.0,81,30.18,10.0,Calm,Calm,-,N/A,,Clear,0,2012-11-20 07:15:00
1:35 AM,46.4,39.2,76,30.19,10.0,Calm,Calm,-,N/A,,Clear,0,2012-11-20 07:35:00
1:55 AM,44.6,41.0,87,30.19,10.0,Calm,Calm,-,N/A,,Clear,0,2012-11-20 07:55:00
2:15 AM,46.4,42.8,87,30.19,10.0,Calm,Calm,-,N/A,,Partly Cloudy,0,2012-11-20 08:15:00
2:35 AM,46.4,42.8,87,30.19,10.0,Calm,Calm,-,N/A,,Partly Cloudy,0,2012-11-20 08:35:00
2:55 AM,46.4,41.0,81,30.19,10.0,Calm,Calm,-,N/A,,Scattered Clouds,0,2012-11-20 08:55:00
3:15 AM,46.4,42.8,87,30.20,10.0,Calm,Calm,-,N/A,,Overcast,0,2012-11-20 09:15:00
3:35 AM,48.2,44.6,87,30.19,10.0,Calm,Calm,-,N/A,,Overcast,0,2012-11-20 09:35:00
3:55 AM,48.2,44.6,87,30.19,10.0,Calm,Calm,-,N/A,,Mostly Cloudy,0,2012-11-20 09:55:00
4:15 AM,50.0,44.6,82,30.19,10.0,Calm,Calm,-,N/A,,Mostly Cloudy,0,2012-11-20 10:15:00
4:35 AM,50.0,44.6,82,30.19,10.0,Calm,Calm,-,N/A,,Mostly Cloudy,0,2012-11-20 10:35:00
4:55 AM,50.0,46.4,87,30.18,10.0,Calm,Calm,-,N/A,,Mostly Cloudy,0,2012-11-20 10:55:00
5:15 AM,50.0,46.4,87,30.19,10.0,Calm,Calm,-,N/A,,Mostly Cloudy,0,2012-11-20 11:15:00
5:35 AM,50.0,46.4,87,30.18,10.0,Calm,Calm,-,N/A,,Overcast,0,2012-11-20 11:35:00
5:55 AM,51.8,46.4,82,30.18,10.0,Calm,Calm,-,N/A,,Overcast,0,2012-11-20 11:55:00
6:15 AM,50.0,44.6,82,30.18,10.0,Calm,Calm,-,N/A,,Scattered Clouds,0,2012-11-20 12:15:00
6:35 AM,48.2,44.6,87,30.19,9.0,Calm,Calm,-,N/A,,Partly Cloudy,0,2012-11-20 12:35:00
6:55 AM,48.2,44.6,87,30.20,9.0,Calm,Calm,-,N/A,,Mostly Cloudy,0,2012-11-20 12:55:00
7:15 AM,50.0,46.4,87,30.21,7.0,Calm,Calm,-,N/A,,Overcast,0,2012-11-20 13:15:00
7:35 AM,51.8,46.4,82,30.21,7.0,Calm,Calm,-,N/A,,Overcast,0,2012-11-20 13:35:00
7:55 AM,51.8,48.2,88,30.22,8.0,Calm,Calm,-,N/A,,Overcast,0,2012-11-20 13:55:00
8:15 AM,53.6,50.0,88,30.22,8.0,Calm,Calm,-,N/A,,Overcast,0,2012-11-20 14:15:00
8:35 AM,55.4,51.8,88,30.23,7.0,Calm,Calm,-,N/A,,Overcast,0,2012-11-20 14:35:00
8:55 AM,55.4,53.6,94,30.24,7.0,Calm,Calm,-,N/A,,Overcast,0,2012-11-20 14:55:00
9:15 AM,57.2,53.6,88,30.23,8.0,Calm,Calm,-,N/A,,Scattered Clouds,0,2012-11-20 15:15:00
9:35 AM,60.8,53.6,77,30.23,10.0,South,4.6,-,N/A,,Clear,190,2012-11-20 15:35:00
9:55 AM,64.4,55.4,73,30.23,10.0,SW,5.8,-,N/A,,Clear,220,2012-11-20 15:55:00
10:15 AM,64.4,55.4,73,30.23,10.0,Calm,Calm,-,N/A,,Clear,0,2012-11-20 16:15:00
10:35 AM,66.2,55.4,68,30.23,10.0,Calm,Calm,-,N/A,,Clear,0,2012-11-20 16:35:00
10:55 AM,68.0,55.4,64,30.22,10.0,Calm,Calm,-,N/A,,Clear,0,2012-11-20 16:55:00
11:15 AM,69.8,53.6,56,30.21,10.0,WNW,4.6,-,N/A,,Clear,300,2012-11-20 17:15:00
11:35 AM,71.6,51.8,50,30.20,10.0,WNW,5.8,-,N/A,,Clear,290,2012-11-20 17:35:00
11:55 AM,71.6,51.8,50,30.20,10.0,West,3.5,-,N/A,,Clear,280,2012-11-20 17:55:00
12:15 PM,73.4,53.6,50,30.19,10.0,WSW,5.8,-,N/A,,Clear,250,2012-11-20 18:15:00
12:35 PM,73.4,55.4,53,30.18,10.0,Calm,Calm,-,N/A,,Clear,0,2012-11-20 18:35:00
12:55 PM,73.4,55.4,53,30.17,10.0,West,3.5,-,N/A,,Clear,280,2012-11-20 18:55:00
1:15 PM,75.2,55.4,50,30.16,10.0,Calm,Calm,-,N/A,,Partly Cloudy,0,2012-11-20 19:15:00
1:35 PM,75.2,55.4,50,30.16,10.0,North,5.8,-,N/A,,Mostly Cloudy,10,2012-11-20 19:35:00
1:55 PM,78.8,57.2,47,30.15,10.0,Calm,Calm,-,N/A,,Partly Cloudy,0,2012-11-20 19:55:00
2:15 PM,75.2,55.4,50,30.15,10.0,West,4.6,-,N/A,,Clear,270,2012-11-20 20:15:00
2:35 PM,75.2,55.4,50,30.14,10.0,Calm,Calm,-,N/A,,Clear,0,2012-11-20 20:35:00
2:55 PM,75.2,55.4,50,30.13,10.0,Calm,Calm,-,N/A,,Clear,0,2012-11-20 20:55:00
3:15 PM,75.2,55.4,50,30.13,10.0,Calm,Calm,-,N/A,,Clear,0,2012-11-20 21:15:00
3:35 PM,75.2,55.4,50,30.13,10.0,Calm,Calm,-,N/A,,Clear,0,2012-11-20 21:35:00
3:55 PM,75.2,55.4,50,30.13,10.0,Calm,Calm,-,N/A,,Clear,0,2012-11-20 21:55:00
4:15 PM,75.2,55.4,50,30.13,10.0,Calm,Calm,-,N/A,,Clear,0,2012-11-20 22:15:00
4:35 PM,73.4,55.4,53,30.13,10.0,Calm,Calm,-,N/A,,Clear,0,2012-11-20 22:35:00
4:55 PM,71.6,57.2,60,30.13,10.0,Calm,Calm,-,N/A,,Clear,0,2012-11-20 22:55:00
5:15 PM,66.2,57.2,73,30.14,10.0,Calm,Calm,-,N/A,,Clear,0,2012-11-20 23:15:00
5:35 PM,62.6,55.4,77,30.14,10.0,Calm,Calm,-,N/A,,Clear,0,2012-11-20 23:35:00
5:55 PM,60.8,55.4,82,30.15,10.0,Calm,Calm,-,N/A,,Clear,0,2012-11-20 23:55:00
6:15 PM,62.6,55.4,77,30.15,10.0,Calm,Calm,-,N/A,,Clear,0,2012-11-21 00:15:00
6:35 PM,59.0,53.6,82,30.16,10.0,Calm,Calm,-,N/A,,Clear,0,2012-11-21 00:35:00
6:55 PM,59.0,53.6,82,30.16,10.0,Calm,Calm,-,N/A,,Clear,0,2012-11-21 00:55:00
7:15 PM,57.2,53.6,88,30.17,10.0,Calm,Calm,-,N/A,,Clear,0,2012-11-21 01:15:00
7:35 PM,57.2,53.6,88,30.18,10.0,Calm,Calm,-,N/A,,Clear,0,2012-11-21 01:35:00
7:55 PM,55.4,51.8,88,30.18,10.0,Calm,Calm,-,N/A,,Clear,0,2012-11-21 01:55:00
8:15 PM,55.4,51.8,88,30.18,10.0,Calm,Calm,-,N/A,,Clear,0,2012-11-21 02:15:00
8:35 PM,55.4,51.8,88,30.19,9.0,Calm,Calm,-,N/A,,Clear,0,2012-11-21 02:35:00
8:55 PM,53.6,50.0,88,30.19,8.0,Calm,Calm,-,N/A,,Clear,0,2012-11-21 02:55:00
9:15 PM,53.6,50.0,88,30.20,8.0,Calm,Calm,-,N/A,,Clear,0,2012-11-21 03:15:00
9:35 PM,53.6,50.0,88,30.20,10.0,Calm,Calm,-,N/A,,Clear,0,2012-11-21 03:35:00
9:55 PM,53.6,48.2,82,30.20,6.0,Calm,Calm,-,N/A,,Clear,0,2012-11-21 03:55:00
10:15 PM,51.8,48.2,88,30.20,5.0,Calm,Calm,-,N/A,,Clear,0,2012-11-21 04:15:00
10:35 PM,51.8,48.2,88,30.21,5.0,Calm,Calm,-,N/A,,Clear,0,2012-11-21 04:35:00
10:55 PM,51.8,48.2,88,30.20,5.0,Calm,Calm,-,N/A,,Clear,0,2012-11-21 04:55:00
11:15 PM,51.8,48.2,88,30.21,8.0,Calm,Calm,-,N/A,,Clear,0,2012-11-21 05:15:00
11:35 PM,51.8,48.2,88,30.20,4.0,Calm,Calm,-,N/A,,Clear,0,2012-11-21 05:35:00
11:55 PM,51.8,46.4,82,30.20,5.0,Calm,Calm,-,N/A,,Clear,0,2012-11-21 05:55:00